sensor_id;sensor_type;location;lat;lon;timestamp;P1;durP1;ratioP1;P2;durP2;ratioP2
13943;SDS011;7044;53.286;8.534;2023-04-01T00:01:09;13.88;;;6.43;;
13943;SDS011;7044;53.286;8.534;2023-04-01T00:03:39;8.30;;;6.10;;
13943;SDS011;7044;53.286;8.534;2023-04-01T00:06:07;9.60;;;6.72;;
13943;SDS011;7044;53.286;8.534;2023-04-01T00:08:33;9.63;;;6.22;;
13943;SDS011;7044;53.286;8.534;2023-04-01T00:11:00;8.70;;;6.70;;
13943;SDS011;7044;53.286;8.534;2023-04-01T00:13:27;11.35;;;7.07;;
13943;SDS011;7044;53.286;8.534;2023-04-01T00:15:54;9.32;;;7.18;;
13943;SDS011;7044;53.286;8.534;2023-04-01T00:18:23;10.88;;;6.93;;
13943;SDS011;7044;53.286;8.534;2023-04-01T00:20:51;11.68;;;7.95;;
13943;SDS011;7044;53.286;8.534;2023-04-01T00:23:18;10.80;;;7.25;;
13943;SDS011;7044;53.286;8.534;2023-04-01T00:25:46;10.85;;;7.65;;
13943;SDS011;7044;53.286;8.534;2023-04-01T00:28:13;10.27;;;7.60;;
13943;SDS011;7044;53.286;8.534;2023-04-01T00:30:40;11.18;;;7.38;;
13943;SDS011;7044;53.286;8.534;2023-04-01T00:33:07;9.32;;;6.95;;
13943;SDS011;7044;53.286;8.534;2023-04-01T00:35:35;11.27;;;7.20;;
13943;SDS011;7044;53.286;8.534;2023-04-01T00:38:02;10.45;;;7.00;;
13943;SDS011;7044;53.286;8.534;2023-04-01T00:40:31;10.70;;;6.90;;
13943;SDS011;7044;53.286;8.534;2023-04-01T00:42:59;10.48;;;6.57;;
13943;SDS011;7044;53.286;8.534;2023-04-01T00:45:28;8.55;;;7.18;;
13943;SDS011;7044;53.286;8.534;2023-04-01T00:47:58;12.60;;;6.88;;
13943;SDS011;7044;53.286;8.534;2023-04-01T00:50:29;9.98;;;6.80;;
13943;SDS011;7044;53.286;8.534;2023-04-01T00:52:59;13.57;;;8.05;;
13943;SDS011;7044;53.286;8.534;2023-04-01T00:55:27;11.63;;;7.00;;
13943;SDS011;7044;53.286;8.534;2023-04-01T00:57:56;10.27;;;7.05;;
13943;SDS011;7044;53.286;8.534;2023-04-01T01:00:25;11.05;;;7.28;;
13943;SDS011;7044;53.286;8.534;2023-04-01T01:02:52;10.90;;;8.32;;
13943;SDS011;7044;53.286;8.534;2023-04-01T01:05:20;10.50;;;7.75;;
13943;SDS011;7044;53.286;8.534;2023-04-01T01:07:57;11.32;;;7.65;;
13943;SDS011;7044;53.286;8.534;2023-04-01T01:10:33;10.05;;;8.20;;
13943;SDS011;7044;53.286;8.534;2023-04-01T01:13:04;11.68;;;7.85;;
13943;SDS011;7044;53.286;8.534;2023-04-01T01:15:37;10.10;;;6.97;;
13943;SDS011;7044;53.286;8.534;2023-04-01T01:18:12;10.70;;;7.18;;
13943;SDS011;7044;53.286;8.534;2023-04-01T01:20:49;9.98;;;7.68;;
13943;SDS011;7044;53.286;8.534;2023-04-01T01:23:57;7.97;;;7.07;;
13943;SDS011;7044;53.286;8.534;2023-04-01T01:26:55;9.23;;;7.85;;
13943;SDS011;7044;53.286;8.534;2023-04-01T01:29:41;10.52;;;7.10;;
13943;SDS011;7044;53.286;8.534;2023-04-01T01:32:43;8.50;;;7.25;;
13943;SDS011;7044;53.286;8.534;2023-04-01T01:35:32;9.43;;;7.57;;
13943;SDS011;7044;53.286;8.534;2023-04-01T01:38:02;11.02;;;7.32;;
13943;SDS011;7044;53.286;8.534;2023-04-01T01:40:31;9.40;;;6.80;;
13943;SDS011;7044;53.286;8.534;2023-04-01T01:43:01;8.98;;;6.70;;
13943;SDS011;7044;53.286;8.534;2023-04-01T01:45:32;9.63;;;6.07;;
13943;SDS011;7044;53.286;8.534;2023-04-01T01:48:01;7.40;;;6.43;;
13943;SDS011;7044;53.286;8.534;2023-04-01T01:50:31;9.40;;;7.10;;
13943;SDS011;7044;53.286;8.534;2023-04-01T01:53:01;8.40;;;6.60;;
13943;SDS011;7044;53.286;8.534;2023-04-01T01:55:29;8.43;;;5.93;;
13943;SDS011;7044;53.286;8.534;2023-04-01T01:57:58;8.32;;;5.85;;
13943;SDS011;7044;53.286;8.534;2023-04-01T02:00:28;8.57;;;6.32;;
13943;SDS011;7044;53.286;8.534;2023-04-01T02:02:55;9.60;;;6.75;;
13943;SDS011;7044;53.286;8.534;2023-04-01T02:05:24;7.57;;;6.45;;
13943;SDS011;7044;53.286;8.534;2023-04-01T02:07:57;8.90;;;6.53;;
13943;SDS011;7044;53.286;8.534;2023-04-01T02:10:30;7.50;;;5.88;;
13943;SDS011;7044;53.286;8.534;2023-04-01T02:13:00;10.40;;;7.05;;
13943;SDS011;7044;53.286;8.534;2023-04-01T02:15:35;7.90;;;6.32;;
13943;SDS011;7044;53.286;8.534;2023-04-01T02:18:06;7.90;;;6.18;;
13943;SDS011;7044;53.286;8.534;2023-04-01T02:20:33;7.32;;;6.05;;
13943;SDS011;7044;53.286;8.534;2023-04-01T02:23:04;8.73;;;6.30;;
13943;SDS011;7044;53.286;8.534;2023-04-01T02:25:34;8.75;;;6.53;;
13943;SDS011;7044;53.286;8.534;2023-04-01T02:28:03;8.85;;;6.43;;
13943;SDS011;7044;53.286;8.534;2023-04-01T02:30:33;9.10;;;7.25;;
13943;SDS011;7044;53.286;8.534;2023-04-01T02:33:02;9.70;;;6.70;;
13943;SDS011;7044;53.286;8.534;2023-04-01T02:35:32;9.52;;;6.80;;
13943;SDS011;7044;53.286;8.534;2023-04-01T02:38:00;10.27;;;7.43;;
13943;SDS011;7044;53.286;8.534;2023-04-01T02:40:28;18.88;;;10.77;;
13943;SDS011;7044;53.286;8.534;2023-04-01T02:42:55;24.15;;;11.07;;
13943;SDS011;7044;53.286;8.534;2023-04-01T02:45:22;36.63;;;14.68;;
13943;SDS011;7044;53.286;8.534;2023-04-01T02:47:49;22.98;;;10.40;;
13943;SDS011;7044;53.286;8.534;2023-04-01T02:50:16;13.55;;;8.48;;
13943;SDS011;7044;53.286;8.534;2023-04-01T02:52:42;9.27;;;6.90;;
13943;SDS011;7044;53.286;8.534;2023-04-01T02:55:09;9.05;;;6.38;;
13943;SDS011;7044;53.286;8.534;2023-04-01T02:57:37;8.77;;;6.97;;
13943;SDS011;7044;53.286;8.534;2023-04-01T03:00:05;9.70;;;7.22;;
13943;SDS011;7044;53.286;8.534;2023-04-01T03:02:36;9.00;;;6.82;;
13943;SDS011;7044;53.286;8.534;2023-04-01T03:05:04;10.02;;;6.90;;
13943;SDS011;7044;53.286;8.534;2023-04-01T03:07:32;12.02;;;7.97;;
13943;SDS011;7044;53.286;8.534;2023-04-01T03:09:59;21.13;;;10.20;;
13943;SDS011;7044;53.286;8.534;2023-04-01T03:12:25;24.25;;;12.10;;
13943;SDS011;7044;53.286;8.534;2023-04-01T03:14:53;41.90;;;18.95;;
13943;SDS011;7044;53.286;8.534;2023-04-01T03:17:20;33.38;;;14.63;;
13943;SDS011;7044;53.286;8.534;2023-04-01T03:19:47;14.15;;;8.77;;
13943;SDS011;7044;53.286;8.534;2023-04-01T03:22:14;10.77;;;8.45;;
13943;SDS011;7044;53.286;8.534;2023-04-01T03:24:41;12.40;;;7.78;;
13943;SDS011;7044;53.286;8.534;2023-04-01T03:27:07;10.02;;;7.88;;
13943;SDS011;7044;53.286;8.534;2023-04-01T03:29:34;14.95;;;8.27;;
13943;SDS011;7044;53.286;8.534;2023-04-01T03:32:02;10.45;;;8.02;;
13943;SDS011;7044;53.286;8.534;2023-04-01T03:34:29;9.77;;;7.35;;
13943;SDS011;7044;53.286;8.534;2023-04-01T03:36:56;8.98;;;7.18;;
13943;SDS011;7044;53.286;8.534;2023-04-01T03:39:23;8.85;;;7.20;;
13943;SDS011;7044;53.286;8.534;2023-04-01T03:41:50;8.07;;;6.95;;
13943;SDS011;7044;53.286;8.534;2023-04-01T03:44:17;9.57;;;7.15;;
13943;SDS011;7044;53.286;8.534;2023-04-01T03:46:44;10.00;;;7.90;;
13943;SDS011;7044;53.286;8.534;2023-04-01T03:49:12;10.27;;;7.97;;
13943;SDS011;7044;53.286;8.534;2023-04-01T03:51:39;10.77;;;7.55;;
13943;SDS011;7044;53.286;8.534;2023-04-01T03:54:06;11.32;;;8.05;;
13943;SDS011;7044;53.286;8.534;2023-04-01T03:56:33;10.65;;;7.82;;
13943;SDS011;7044;53.286;8.534;2023-04-01T03:59:01;11.77;;;8.43;;
13943;SDS011;7044;53.286;8.534;2023-04-01T04:01:29;11.13;;;8.13;;
13943;SDS011;7044;53.286;8.534;2023-04-01T04:03:55;8.98;;;7.40;;
13943;SDS011;7044;53.286;8.534;2023-04-01T04:06:24;11.25;;;7.35;;
13943;SDS011;7044;53.286;8.534;2023-04-01T04:08:52;11.40;;;7.68;;
13943;SDS011;7044;53.286;8.534;2023-04-01T04:11:19;10.82;;;7.40;;
13943;SDS011;7044;53.286;8.534;2023-04-01T04:13:46;9.68;;;7.55;;
13943;SDS011;7044;53.286;8.534;2023-04-01T04:16:14;10.95;;;7.78;;
13943;SDS011;7044;53.286;8.534;2023-04-01T04:18:41;11.70;;;8.13;;
13943;SDS011;7044;53.286;8.534;2023-04-01T04:21:10;9.05;;;7.47;;
13943;SDS011;7044;53.286;8.534;2023-04-01T04:23:40;10.73;;;8.07;;
13943;SDS011;7044;53.286;8.534;2023-04-01T04:26:07;12.30;;;7.85;;
13943;SDS011;7044;53.286;8.534;2023-04-01T04:28:35;12.60;;;8.23;;
13943;SDS011;7044;53.286;8.534;2023-04-01T04:31:02;9.93;;;7.68;;
13943;SDS011;7044;53.286;8.534;2023-04-01T04:35:25;8.75;;;7.75;;
13943;SDS011;7044;53.286;8.534;2023-04-01T04:37:52;12.25;;;8.40;;
13943;SDS011;7044;53.286;8.534;2023-04-01T04:40:19;15.40;;;9.90;;
13943;SDS011;7044;53.286;8.534;2023-04-01T04:42:46;11.55;;;9.60;;
13943;SDS011;7044;53.286;8.534;2023-04-01T04:45:12;11.63;;;8.63;;
13943;SDS011;7044;53.286;8.534;2023-04-01T04:47:40;14.55;;;9.63;;
13943;SDS011;7044;53.286;8.534;2023-04-01T04:50:07;14.07;;;9.00;;
13943;SDS011;7044;53.286;8.534;2023-04-01T04:52:36;11.25;;;7.97;;
13943;SDS011;7044;53.286;8.534;2023-04-01T04:55:03;13.60;;;8.25;;
13943;SDS011;7044;53.286;8.534;2023-04-01T04:57:30;9.63;;;7.88;;
13943;SDS011;7044;53.286;8.534;2023-04-01T04:59:57;10.20;;;7.80;;
13943;SDS011;7044;53.286;8.534;2023-04-01T05:02:24;11.00;;;8.18;;
13943;SDS011;7044;53.286;8.534;2023-04-01T05:04:50;11.82;;;7.63;;
13943;SDS011;7044;53.286;8.534;2023-04-01T05:07:17;10.43;;;7.97;;
13943;SDS011;7044;53.286;8.534;2023-04-01T05:09:45;10.85;;;7.93;;
13943;SDS011;7044;53.286;8.534;2023-04-01T05:12:12;12.15;;;8.45;;
13943;SDS011;7044;53.286;8.534;2023-04-01T05:14:39;12.05;;;8.35;;
13943;SDS011;7044;53.286;8.534;2023-04-01T05:17:07;11.98;;;8.52;;
13943;SDS011;7044;53.286;8.534;2023-04-01T05:19:35;12.35;;;8.63;;
13943;SDS011;7044;53.286;8.534;2023-04-01T05:22:02;9.38;;;7.05;;
13943;SDS011;7044;53.286;8.534;2023-04-01T05:24:29;12.20;;;6.80;;
13943;SDS011;7044;53.286;8.534;2023-04-01T05:26:57;9.50;;;7.18;;
13943;SDS011;7044;53.286;8.534;2023-04-01T05:29:25;7.93;;;6.70;;
13943;SDS011;7044;53.286;8.534;2023-04-01T05:31:52;8.73;;;6.63;;
13943;SDS011;7044;53.286;8.534;2023-04-01T05:34:19;11.95;;;6.30;;
13943;SDS011;7044;53.286;8.534;2023-04-01T05:36:46;8.98;;;6.65;;
13943;SDS011;7044;53.286;8.534;2023-04-01T05:39:12;7.82;;;6.32;;
13943;SDS011;7044;53.286;8.534;2023-04-01T05:41:39;7.95;;;6.32;;
13943;SDS011;7044;53.286;8.534;2023-04-01T05:44:10;9.20;;;6.80;;
13943;SDS011;7044;53.286;8.534;2023-04-01T05:46:38;9.95;;;6.75;;
13943;SDS011;7044;53.286;8.534;2023-04-01T05:49:05;8.35;;;6.43;;
13943;SDS011;7044;53.286;8.534;2023-04-01T05:51:31;9.93;;;6.97;;
13943;SDS011;7044;53.286;8.534;2023-04-01T05:53:58;8.63;;;5.93;;
13943;SDS011;7044;53.286;8.534;2023-04-01T05:56:25;8.02;;;6.03;;
13943;SDS011;7044;53.286;8.534;2023-04-01T05:58:53;8.68;;;6.60;;
13943;SDS011;7044;53.286;8.534;2023-04-01T06:01:21;9.18;;;5.93;;
13943;SDS011;7044;53.286;8.534;2023-04-01T06:03:48;10.13;;;6.20;;
13943;SDS011;7044;53.286;8.534;2023-04-01T06:06:16;7.82;;;5.85;;
13943;SDS011;7044;53.286;8.534;2023-04-01T06:08:49;8.15;;;5.88;;
13943;SDS011;7044;53.286;8.534;2023-04-01T06:11:19;9.57;;;6.38;;
13943;SDS011;7044;53.286;8.534;2023-04-01T06:13:56;8.18;;;5.75;;
13943;SDS011;7044;53.286;8.534;2023-04-01T06:16:37;10.82;;;6.07;;
13943;SDS011;7044;53.286;8.534;2023-04-01T06:19:15;7.88;;;6.03;;
13943;SDS011;7044;53.286;8.534;2023-04-01T06:22:03;7.50;;;5.97;;
13943;SDS011;7044;53.286;8.534;2023-04-01T06:24:46;7.40;;;5.43;;
13943;SDS011;7044;53.286;8.534;2023-04-01T06:27:39;6.05;;;5.43;;
13943;SDS011;7044;53.286;8.534;2023-04-01T06:30:24;6.68;;;5.38;;
13943;SDS011;7044;53.286;8.534;2023-04-01T06:33:04;6.25;;;5.57;;
13943;SDS011;7044;53.286;8.534;2023-04-01T06:36:02;6.13;;;5.00;;
13943;SDS011;7044;53.286;8.534;2023-04-01T06:38:44;6.63;;;5.30;;
13943;SDS011;7044;53.286;8.534;2023-04-01T06:41:46;7.57;;;5.00;;
13943;SDS011;7044;53.286;8.534;2023-04-01T06:44:47;7.63;;;5.00;;
13943;SDS011;7044;53.286;8.534;2023-04-01T06:47:25;7.10;;;4.90;;
13943;SDS011;7044;53.286;8.534;2023-04-01T06:50:02;5.70;;;4.90;;
13943;SDS011;7044;53.286;8.534;2023-04-01T06:52:37;5.45;;;4.82;;
13943;SDS011;7044;53.286;8.534;2023-04-01T06:55:17;6.13;;;4.85;;
13943;SDS011;7044;53.286;8.534;2023-04-01T06:57:52;4.95;;;4.07;;
13943;SDS011;7044;53.286;8.534;2023-04-01T07:00:23;5.97;;;4.75;;
13943;SDS011;7044;53.286;8.534;2023-04-01T07:02:56;8.32;;;4.65;;
13943;SDS011;7044;53.286;8.534;2023-04-01T07:05:32;4.60;;;3.97;;
13943;SDS011;7044;53.286;8.534;2023-04-01T07:08:01;5.07;;;4.25;;
13943;SDS011;7044;53.286;8.534;2023-04-01T07:10:33;5.53;;;4.05;;
13943;SDS011;7044;53.286;8.534;2023-04-01T07:13:10;6.13;;;4.03;;
13943;SDS011;7044;53.286;8.534;2023-04-01T07:15:42;5.15;;;3.92;;
13943;SDS011;7044;53.286;8.534;2023-04-01T07:18:12;5.35;;;3.63;;
13943;SDS011;7044;53.286;8.534;2023-04-01T07:20:43;4.85;;;3.92;;
13943;SDS011;7044;53.286;8.534;2023-04-01T07:23:15;3.80;;;3.38;;
13943;SDS011;7044;53.286;8.534;2023-04-01T07:25:47;5.13;;;3.95;;
13943;SDS011;7044;53.286;8.534;2023-04-01T07:28:18;4.47;;;3.40;;
13943;SDS011;7044;53.286;8.534;2023-04-01T07:30:49;5.57;;;3.58;;
13943;SDS011;7044;53.286;8.534;2023-04-01T07:33:25;3.95;;;3.55;;
13943;SDS011;7044;53.286;8.534;2023-04-01T07:36:02;7.10;;;3.72;;
13943;SDS011;7044;53.286;8.534;2023-04-01T07:38:35;6.07;;;3.60;;
13943;SDS011;7044;53.286;8.534;2023-04-01T07:41:12;5.10;;;3.33;;
13943;SDS011;7044;53.286;8.534;2023-04-01T07:43:53;4.00;;;3.60;;
13943;SDS011;7044;53.286;8.534;2023-04-01T07:46:33;6.32;;;3.33;;
13943;SDS011;7044;53.286;8.534;2023-04-01T07:49:22;3.53;;;3.13;;
13943;SDS011;7044;53.286;8.534;2023-04-01T07:51:59;4.15;;;3.00;;
13943;SDS011;7044;53.286;8.534;2023-04-01T07:54:34;4.72;;;3.33;;
13943;SDS011;7044;53.286;8.534;2023-04-01T07:57:06;3.50;;;3.20;;
13943;SDS011;7044;53.286;8.534;2023-04-01T07:59:39;4.57;;;3.38;;
13943;SDS011;7044;53.286;8.534;2023-04-01T08:02:19;3.45;;;2.78;;
13943;SDS011;7044;53.286;8.534;2023-04-01T08:04:55;3.72;;;3.00;;
13943;SDS011;7044;53.286;8.534;2023-04-01T08:07:33;3.67;;;3.15;;
13943;SDS011;7044;53.286;8.534;2023-04-01T08:10:08;4.50;;;3.53;;
13943;SDS011;7044;53.286;8.534;2023-04-01T08:12:42;3.15;;;2.83;;
13943;SDS011;7044;53.286;8.534;2023-04-01T08:15:19;5.00;;;3.30;;
13943;SDS011;7044;53.286;8.534;2023-04-01T08:17:54;2.78;;;2.58;;
13943;SDS011;7044;53.286;8.534;2023-04-01T08:20:30;2.97;;;2.67;;
13943;SDS011;7044;53.286;8.534;2023-04-01T08:23:05;3.20;;;2.75;;
13943;SDS011;7044;53.286;8.534;2023-04-01T08:25:37;4.35;;;2.92;;
13943;SDS011;7044;53.286;8.534;2023-04-01T08:28:09;3.83;;;2.60;;
13943;SDS011;7044;53.286;8.534;2023-04-01T08:30:41;5.00;;;3.13;;
13943;SDS011;7044;53.286;8.534;2023-04-01T08:33:13;3.63;;;2.60;;
13943;SDS011;7044;53.286;8.534;2023-04-01T08:35:46;3.58;;;3.00;;
13943;SDS011;7044;53.286;8.534;2023-04-01T08:38:19;5.30;;;2.60;;
13943;SDS011;7044;53.286;8.534;2023-04-01T08:40:59;3.95;;;2.67;;
13943;SDS011;7044;53.286;8.534;2023-04-01T08:43:45;3.45;;;3.10;;
13943;SDS011;7044;53.286;8.534;2023-04-01T08:46:35;1.55;;;1.45;;
13943;SDS011;7044;53.286;8.534;2023-04-01T08:49:25;0.75;;;0.75;;
13943;SDS011;7044;53.286;8.534;2023-04-01T08:52:17;0.73;;;0.60;;
13943;SDS011;7044;53.286;8.534;2023-04-01T08:54:56;0.60;;;0.60;;
13943;SDS011;7044;53.286;8.534;2023-04-01T08:57:52;1.05;;;0.95;;
13943;SDS011;7044;53.286;8.534;2023-04-01T09:00:30;0.77;;;0.77;;
13943;SDS011;7044;53.286;8.534;2023-04-01T09:06:20;0.73;;;0.73;;
13943;SDS011;7044;53.286;8.534;2023-04-01T09:08:54;0.75;;;0.75;;
13943;SDS011;7044;53.286;8.534;2023-04-01T09:11:49;0.88;;;0.88;;
13943;SDS011;7044;53.286;8.534;2023-04-01T09:14:36;1.20;;;1.10;;
13943;SDS011;7044;53.286;8.534;2023-04-01T09:20:15;0.90;;;0.90;;
13943;SDS011;7044;53.286;8.534;2023-04-01T09:22:54;0.90;;;0.90;;
13943;SDS011;7044;53.286;8.534;2023-04-01T09:28:28;1.00;;;1.00;;
13943;SDS011;7044;53.286;8.534;2023-04-01T09:31:07;1.47;;;1.37;;
13943;SDS011;7044;53.286;8.534;2023-04-01T09:33:55;1.30;;;1.20;;
13943;SDS011;7044;53.286;8.534;2023-04-01T09:36:45;1.73;;;1.63;;
13943;SDS011;7044;53.286;8.534;2023-04-01T09:42:06;1.40;;;1.30;;
13943;SDS011;7044;53.286;8.534;2023-04-01T09:44:43;1.57;;;1.47;;
13943;SDS011;7044;53.286;8.534;2023-04-01T09:47:16;1.97;;;1.80;;
13943;SDS011;7044;53.286;8.534;2023-04-01T09:50:10;1.93;;;1.83;;
13943;SDS011;7044;53.286;8.534;2023-04-01T09:52:57;2.17;;;1.97;;
13943;SDS011;7044;53.286;8.534;2023-04-01T09:55:48;4.47;;;2.30;;
13943;SDS011;7044;53.286;8.534;2023-04-01T10:05:04;3.37;;;3.07;;
13943;SDS011;7044;53.286;8.534;2023-04-01T10:21:01;3.80;;;3.50;;
13943;SDS011;7044;53.286;8.534;2023-04-01T10:23:43;4.13;;;3.73;;
13943;SDS011;7044;53.286;8.534;2023-04-01T10:29:50;4.47;;;4.07;;
13943;SDS011;7044;53.286;8.534;2023-04-01T10:35:58;4.60;;;4.20;;
13943;SDS011;7044;53.286;8.534;2023-04-01T10:39:10;4.23;;;3.83;;
13943;SDS011;7044;53.286;8.534;2023-04-01T10:45:22;4.80;;;4.20;;
13943;SDS011;7044;53.286;8.534;2023-04-01T10:54:45;3.57;;;3.27;;
13943;SDS011;7044;53.286;8.534;2023-04-01T10:57:28;3.17;;;2.90;;
13943;SDS011;7044;53.286;8.534;2023-04-01T11:06:20;4.10;;;3.70;;
13943;SDS011;7044;53.286;8.534;2023-04-01T11:15:57;4.73;;;4.20;;
13943;SDS011;7044;53.286;8.534;2023-04-01T11:25:08;4.97;;;4.57;;
13943;SDS011;7044;53.286;8.534;2023-04-01T11:27:50;5.40;;;4.90;;
13943;SDS011;7044;53.286;8.534;2023-04-01T11:30:37;5.23;;;4.73;;
13943;SDS011;7044;53.286;8.534;2023-04-01T11:33:16;4.90;;;4.07;;
13943;SDS011;7044;53.286;8.534;2023-04-01T11:35:55;4.40;;;4.00;;
13943;SDS011;7044;53.286;8.534;2023-04-01T11:38:44;4.43;;;4.03;;
13943;SDS011;7044;53.286;8.534;2023-04-01T11:41:26;4.57;;;4.10;;
13943;SDS011;7044;53.286;8.534;2023-04-01T11:44:04;4.50;;;3.80;;
13943;SDS011;7044;53.286;8.534;2023-04-01T11:49:38;4.30;;;3.90;;
13943;SDS011;7044;53.286;8.534;2023-04-01T11:55:24;3.50;;;3.20;;
13943;SDS011;7044;53.286;8.534;2023-04-01T11:58:02;3.43;;;3.00;;
13943;SDS011;7044;53.286;8.534;2023-04-01T12:00:53;3.03;;;2.83;;
13943;SDS011;7044;53.286;8.534;2023-04-01T12:06:33;2.80;;;2.60;;
13943;SDS011;7044;53.286;8.534;2023-04-01T12:09:10;4.33;;;2.80;;
13943;SDS011;7044;53.286;8.534;2023-04-01T12:11:46;3.13;;;2.40;;
13943;SDS011;7044;53.286;8.534;2023-04-01T12:14:22;2.90;;;2.60;;
13943;SDS011;7044;53.286;8.534;2023-04-01T12:17:02;2.80;;;2.60;;
13943;SDS011;7044;53.286;8.534;2023-04-01T12:19:39;4.33;;;2.53;;
13943;SDS011;7044;53.286;8.534;2023-04-01T12:22:19;1.77;;;1.67;;
13943;SDS011;7044;53.286;8.534;2023-04-01T12:24:56;2.00;;;1.90;;
13943;SDS011;7044;53.286;8.534;2023-04-01T12:27:41;2.60;;;2.40;;
13943;SDS011;7044;53.286;8.534;2023-04-01T12:30:26;2.30;;;2.10;;
13943;SDS011;7044;53.286;8.534;2023-04-01T12:33:33;2.90;;;2.37;;
13943;SDS011;7044;53.286;8.534;2023-04-01T12:36:20;2.40;;;2.20;;
13943;SDS011;7044;53.286;8.534;2023-04-01T12:39:05;2.10;;;2.00;;
13943;SDS011;7044;53.286;8.534;2023-04-01T12:41:48;2.40;;;2.20;;
13943;SDS011;7044;53.286;8.534;2023-04-01T12:47:17;2.20;;;2.00;;
13943;SDS011;7044;53.286;8.534;2023-04-01T12:49:55;2.30;;;2.10;;
13943;SDS011;7044;53.286;8.534;2023-04-01T12:52:39;1.80;;;1.70;;
13943;SDS011;7044;53.286;8.534;2023-04-01T12:55:26;2.10;;;1.90;;
13943;SDS011;7044;53.286;8.534;2023-04-01T13:04:30;2.17;;;1.97;;
13943;SDS011;7044;53.286;8.534;2023-04-01T13:07:28;1.93;;;1.60;;
13943;SDS011;7044;53.286;8.534;2023-04-01T13:10:15;1.57;;;1.47;;
13943;SDS011;7044;53.286;8.534;2023-04-01T13:13:10;1.73;;;1.63;;
13943;SDS011;7044;53.286;8.534;2023-04-01T13:15:48;1.60;;;1.50;;
13943;SDS011;7044;53.286;8.534;2023-04-01T13:18:22;1.40;;;1.30;;
13943;SDS011;7044;53.286;8.534;2023-04-01T13:20:58;3.17;;;2.00;;
13943;SDS011;7044;53.286;8.534;2023-04-01T13:23:34;2.90;;;1.70;;
13943;SDS011;7044;53.286;8.534;2023-04-01T13:26:16;1.90;;;1.70;;
13943;SDS011;7044;53.286;8.534;2023-04-01T13:28:50;2.17;;;1.97;;
13943;SDS011;7044;53.286;8.534;2023-04-01T13:31:27;2.40;;;2.07;;
13943;SDS011;7044;53.286;8.534;2023-04-01T13:34:19;2.00;;;1.80;;
13943;SDS011;7044;53.286;8.534;2023-04-01T13:36:56;1.93;;;1.83;;
13943;SDS011;7044;53.286;8.534;2023-04-01T13:39:36;1.77;;;1.67;;
13943;SDS011;7044;53.286;8.534;2023-04-01T13:42:16;1.80;;;1.70;;
13943;SDS011;7044;53.286;8.534;2023-04-01T13:44:51;1.40;;;1.30;;
13943;SDS011;7044;53.286;8.534;2023-04-01T13:47:27;1.63;;;1.53;;
13943;SDS011;7044;53.286;8.534;2023-04-01T13:50:32;1.30;;;1.30;;
13943;SDS011;7044;53.286;8.534;2023-04-01T13:53:14;2.40;;;1.60;;
13943;SDS011;7044;53.286;8.534;2023-04-01T13:56:04;1.40;;;1.30;;
13943;SDS011;7044;53.286;8.534;2023-04-01T13:58:52;2.10;;;1.90;;
13943;SDS011;7044;53.286;8.534;2023-04-01T14:01:38;2.17;;;1.83;;
13943;SDS011;7044;53.286;8.534;2023-04-01T14:04:18;1.80;;;1.60;;
13943;SDS011;7044;53.286;8.534;2023-04-01T14:07:06;3.13;;;1.40;;
13943;SDS011;7044;53.286;8.534;2023-04-01T14:09:52;2.00;;;1.80;;
13943;SDS011;7044;53.286;8.534;2023-04-01T14:12:31;2.70;;;1.87;;
13943;SDS011;7044;53.286;8.534;2023-04-01T14:15:10;2.43;;;1.90;;
13943;SDS011;7044;53.286;8.534;2023-04-01T14:17:57;3.77;;;2.20;;
13943;SDS011;7044;53.286;8.534;2023-04-01T14:20:38;2.67;;;2.20;;
13943;SDS011;7044;53.286;8.534;2023-04-01T14:23:16;3.17;;;2.43;;
13943;SDS011;7044;53.286;8.534;2023-04-01T14:26:04;2.77;;;2.13;;
13943;SDS011;7044;53.286;8.534;2023-04-01T14:29:09;2.87;;;2.47;;
13943;SDS011;7044;53.286;8.534;2023-04-01T14:31:56;3.67;;;3.00;;
13943;SDS011;7044;53.286;8.534;2023-04-01T14:34:33;2.63;;;2.43;;
13943;SDS011;7044;53.286;8.534;2023-04-01T14:37:15;2.90;;;2.60;;
13943;SDS011;7044;53.286;8.534;2023-04-01T14:46:04;3.07;;;2.30;;
13943;SDS011;7044;53.286;8.534;2023-04-01T14:48:37;5.33;;;3.87;;
13943;SDS011;7044;53.286;8.534;2023-04-01T14:51:08;4.60;;;3.57;;
13943;SDS011;7044;53.286;8.534;2023-04-01T14:53:41;5.57;;;3.00;;
13943;SDS011;7044;53.286;8.534;2023-04-01T14:56:29;4.10;;;2.73;;
13943;SDS011;7044;53.286;8.534;2023-04-01T14:59:01;4.20;;;2.90;;
13943;SDS011;7044;53.286;8.534;2023-04-01T15:01:36;3.30;;;2.70;;
13943;SDS011;7044;53.286;8.534;2023-04-01T15:04:15;4.67;;;3.43;;
13943;SDS011;7044;53.286;8.534;2023-04-01T15:06:56;4.60;;;3.17;;
13943;SDS011;7044;53.286;8.534;2023-04-01T15:09:37;4.00;;;2.90;;
13943;SDS011;7044;53.286;8.534;2023-04-01T15:12:12;5.53;;;3.10;;
13943;SDS011;7044;53.286;8.534;2023-04-01T15:14:48;3.63;;;3.00;;
13943;SDS011;7044;53.286;8.534;2023-04-01T15:17:37;5.77;;;3.00;;
13943;SDS011;7044;53.286;8.534;2023-04-01T15:20:35;2.87;;;2.57;;
13943;SDS011;7044;53.286;8.534;2023-04-01T15:23:27;4.97;;;2.70;;
13943;SDS011;7044;53.286;8.534;2023-04-01T15:26:11;4.03;;;3.20;;
13943;SDS011;7044;53.286;8.534;2023-04-01T15:28:49;4.57;;;2.90;;
13943;SDS011;7044;53.286;8.534;2023-04-01T15:31:29;3.47;;;3.17;;
13943;SDS011;7044;53.286;8.534;2023-04-01T15:34:09;6.70;;;3.53;;
13943;SDS011;7044;53.286;8.534;2023-04-01T15:36:51;4.80;;;2.90;;
13943;SDS011;7044;53.286;8.534;2023-04-01T15:39:24;5.73;;;3.13;;
13943;SDS011;7044;53.286;8.534;2023-04-01T15:42:09;3.57;;;3.20;;
13943;SDS011;7044;53.286;8.534;2023-04-01T15:44:47;3.67;;;3.30;;
13943;SDS011;7044;53.286;8.534;2023-04-01T15:47:33;5.30;;;3.40;;
13943;SDS011;7044;53.286;8.534;2023-04-01T15:53:05;7.30;;;2.63;;
13943;SDS011;7044;53.286;8.534;2023-04-01T15:55:40;6.80;;;3.53;;
13943;SDS011;7044;53.286;8.534;2023-04-01T15:58:22;4.23;;;2.87;;
13943;SDS011;7044;53.286;8.534;2023-04-01T16:01:09;3.57;;;3.00;;
13943;SDS011;7044;53.286;8.534;2023-04-01T16:03:50;4.63;;;2.73;;
13943;SDS011;7044;53.286;8.534;2023-04-01T16:06:24;3.93;;;2.80;;
13943;SDS011;7044;53.286;8.534;2023-04-01T16:09:08;3.70;;;3.10;;
13943;SDS011;7044;53.286;8.534;2023-04-01T16:11:48;5.50;;;3.27;;
13943;SDS011;7044;53.286;8.534;2023-04-01T16:14:29;3.93;;;3.30;;
13943;SDS011;7044;53.286;8.534;2023-04-01T16:17:05;4.83;;;3.33;;
13943;SDS011;7044;53.286;8.534;2023-04-01T16:19:49;5.03;;;3.07;;
13943;SDS011;7044;53.286;8.534;2023-04-01T16:22:20;3.80;;;2.90;;
13943;SDS011;7044;53.286;8.534;2023-04-01T16:24:53;6.83;;;3.30;;
13943;SDS011;7044;53.286;8.534;2023-04-01T16:27:27;3.50;;;2.77;;
13943;SDS011;7044;53.286;8.534;2023-04-01T16:30:03;4.30;;;3.43;;
13943;SDS011;7044;53.286;8.534;2023-04-01T16:32:50;3.97;;;2.90;;
13943;SDS011;7044;53.286;8.534;2023-04-01T16:35:23;3.70;;;3.20;;
13943;SDS011;7044;53.286;8.534;2023-04-01T16:37:59;3.10;;;2.73;;
13943;SDS011;7044;53.286;8.534;2023-04-01T16:40:36;7.17;;;3.43;;
13943;SDS011;7044;53.286;8.534;2023-04-01T16:43:11;4.63;;;3.03;;
13943;SDS011;7044;53.286;8.534;2023-04-01T16:45:44;3.77;;;2.87;;
13943;SDS011;7044;53.286;8.534;2023-04-01T16:48:20;5.67;;;3.03;;
13943;SDS011;7044;53.286;8.534;2023-04-01T16:50:54;5.87;;;2.70;;
13943;SDS011;7044;53.286;8.534;2023-04-01T16:53:30;4.87;;;2.63;;
13943;SDS011;7044;53.286;8.534;2023-04-01T16:56:07;4.60;;;2.43;;
13943;SDS011;7044;53.286;8.534;2023-04-01T16:58:39;4.90;;;3.40;;
13943;SDS011;7044;53.286;8.534;2023-04-01T17:01:11;4.47;;;2.73;;
13943;SDS011;7044;53.286;8.534;2023-04-01T17:03:43;7.47;;;2.87;;
13943;SDS011;7044;53.286;8.534;2023-04-01T17:06:13;4.57;;;2.97;;
13943;SDS011;7044;53.286;8.534;2023-04-01T17:11:59;9.30;;;3.10;;
13943;SDS011;7044;53.286;8.534;2023-04-01T17:14:36;3.10;;;2.80;;
13943;SDS011;7044;53.286;8.534;2023-04-01T17:17:14;4.67;;;2.87;;
13943;SDS011;7044;53.286;8.534;2023-04-01T17:20:02;9.60;;;3.20;;
13943;SDS011;7044;53.286;8.534;2023-04-01T17:22:53;5.47;;;3.00;;
13943;SDS011;7044;53.286;8.534;2023-04-01T17:25:38;4.97;;;2.90;;
13943;SDS011;7044;53.286;8.534;2023-04-01T17:28:19;5.53;;;3.10;;
13943;SDS011;7044;53.286;8.534;2023-04-01T17:30:55;5.47;;;3.40;;